Daily Stat PackHorse Racing Tips

Todays Racecards Daily Stat Pack

Our Daily Stat Pack provides you with the details of the best jockeys and trainers at all the courses racing today.

We start by looking for jockeys and trainers who have had a minimum of a 17% strike rate over the course they are running at today…

We recommend that when considering the following runners in your analysis you remove any at 16/1 or higher. To get profitable tips each day based on this data please visit the UKRN Early Bird service here.

Curragh

DATE / TIME HORSE TRAINER TRAINER WINS TRAINER RUNS TRAINER SR
2017-08-20 14:45:00 True Blue Moon J O’Brien 11 59 18.64
2017-08-20 15:55:00 Central Square R Varian 3 14 21.43
2017-08-20 15:55:00 Reckless Gold J O’Brien 11 59 18.64
2017-08-20 16:30:00 Blue Skimmer Miss N McKenna 3 17 17.65
2017-08-20 17:00:00 Detailed J O’Brien 11 59 18.64
2017-08-20 17:30:00 Captain Midnight J Murray 3 12 25
DATE / TIME HORSE JOCKEY JOCKEY WINS JOCKEY RUNS JOCKEY SR
2017-08-20 13:40:00 Threeandfourpence R L Moore 48 163 29.45
2017-08-20 14:10:00 Rostropovich R L Moore 48 163 29.45
2017-08-20 14:45:00 Declarationofpeace R L Moore 48 163 29.45
2017-08-20 15:20:00 Happily R L Moore 48 163 29.45

Deauville

DATE / TIME HORSE TRAINER TRAINER WINS TRAINER RUNS TRAINER SR
2017-08-20 14:45:00 So Mi Dar J Gosden 4 11 36.36
2017-08-20 14:45:00 Siyoushake F Head 6 26 23.08
2017-08-20 14:45:00 Left Hand C Laffon-Parias 4 20 20
2017-08-20 15:30:00 Tantheem F Head 6 26 23.08
DATE / TIME HORSE JOCKEY JOCKEY WINS JOCKEY RUNS JOCKEY SR
2017-08-20 14:45:00 So Mi Dar L Dettori 6 14 42.86

Pontefract

DATE / TIME HORSE TRAINER TRAINER WINS TRAINER RUNS TRAINER SR
2017-08-20 14:50:00 Amlad E Dunlop 10 41 24.39
2017-08-20 14:50:00 Melting Dew Sir M Stoute 21 84 25
2017-08-20 15:25:00 Tectonic K Dalgleish 6 30 20
2017-08-20 16:00:00 Glenrowan Rose K Dalgleish 6 30 20
2017-08-20 16:35:00 Lomu K Dalgleish 6 30 20
2017-08-20 17:10:00 Glassy Waters S bin Suroor 21 78 26.92
2017-08-20 17:40:00 Kommander Kirkup M Herrington 3 13 23.08
2017-08-20 17:40:00 Avenue Of Stars Karen McLintock 5 14 35.71
2017-08-20 18:10:00 Mishaal M Herrington 3 13 23.08
DATE / TIME HORSE JOCKEY JOCKEY WINS JOCKEY RUNS JOCKEY SR
2017-08-20 14:15:00 Viscount Loftus S De Sousa 63 323 19.5
2017-08-20 14:15:00 Ginbar R Kingscote 16 91 17.58
2017-08-20 14:50:00 Bear Valley S De Sousa 63 323 19.5
2017-08-20 15:25:00 Wordiness S De Sousa 63 323 19.5
2017-08-20 15:25:00 Hallstatt Mr L Edmunds 4 14 28.57
2017-08-20 16:00:00 Classical Times J Mitchell 3 17 17.65
2017-08-20 16:00:00 Eartha Kitt R Kingscote 16 91 17.58
2017-08-20 16:00:00 Tundra S De Sousa 63 323 19.5
2017-08-20 16:35:00 Morning Suit S De Sousa 63 323 19.5
2017-08-20 17:10:00 Mr Slicker R Kingscote 16 91 17.58
2017-08-20 17:10:00 True Colors J Garrity 9 49 18.37
2017-08-20 17:10:00 Morning Chimes S De Sousa 63 323 19.5
2017-08-20 17:40:00 Highly Sprung S De Sousa 63 323 19.5
2017-08-20 18:10:00 Penny Pot Lane Mr L Edmunds 4 14 28.57
2017-08-20 18:10:00 Market Choice Callum Rodriguez 2 11 18.18

Southwell

DATE / TIME HORSE TRAINER TRAINER WINS TRAINER RUNS TRAINER SR
2017-08-20 14:00:00 Azzuri D Skelton 21 100 21
2017-08-20 14:35:00 Exitas P Middleton 5 22 22.73
2017-08-20 14:35:00 David John T Lacey 6 24 25
2017-08-20 14:35:00 Stormbay Bomber P Holmes 4 15 26.67
2017-08-20 15:10:00 Henryville H Fry 3 11 27.27
2017-08-20 15:10:00 Voix D’Eau H Fry 3 11 27.27
2017-08-20 15:10:00 Hammersly Lake C Longsdon 24 120 20
2017-08-20 15:10:00 Midnight Shot C Longsdon 24 120 20
2017-08-20 15:10:00 Art Of Payroll H Fry 3 11 27.27
2017-08-20 15:10:00 Mont Royale Jonjo O’Neill 51 279 18.28
2017-08-20 15:40:00 Braavos P Hobbs 10 47 21.28
2017-08-20 15:40:00 Old Harry Rocks H Fry 3 11 27.27
2017-08-20 15:40:00 Destiny’s Gold Dr R Newland 10 46 21.74
2017-08-20 16:15:00 Tidestream T Vaughan 33 156 21.15
2017-08-20 16:15:00 Premier Rose D Skelton 21 100 21
2017-08-20 16:50:00 Bise D’Estruval D Skelton 21 100 21
2017-08-20 17:25:00 Tempuran Dr R Newland 10 46 21.74
2017-08-20 17:25:00 Astrum P Middleton 5 22 22.73
DATE / TIME HORSE JOCKEY JOCKEY WINS JOCKEY RUNS JOCKEY SR
2017-08-20 14:00:00 Azzuri H Skelton 26 135 19.26
2017-08-20 14:00:00 Cliffside Park R Johnson 56 253 22.13
2017-08-20 14:00:00 Stealing Mix N Fehily 37 140 26.43
2017-08-20 14:00:00 Hazamar P Brennan 40 184 21.74
2017-08-20 14:35:00 Highbury High N Fehily 37 140 26.43
2017-08-20 14:35:00 Skilled R Johnson 56 253 22.13
2017-08-20 14:35:00 Stormbay Bomber A Nicol 13 74 17.57
2017-08-20 15:10:00 Art Of Payroll N Fehily 37 140 26.43
2017-08-20 15:40:00 Jacks Last Hope P Brennan 40 184 21.74
2017-08-20 15:40:00 Braavos R Johnson 56 253 22.13
2017-08-20 15:40:00 Old Harry Rocks N Fehily 37 140 26.43
2017-08-20 15:40:00 Kalifourchon T Scudamore 25 133 18.8
2017-08-20 16:15:00 Varene De Vauzelle R Johnson 56 253 22.13
2017-08-20 16:15:00 Tidestream Mr A Johns 5 25 20
2017-08-20 16:15:00 Table Bluff Mr N De Boinville 14 52 26.92
2017-08-20 16:15:00 Premier Rose H Skelton 26 135 19.26
2017-08-20 16:50:00 A Touch Of Sparkle R Johnson 56 253 22.13
2017-08-20 16:50:00 Bise D’Estruval H Skelton 26 135 19.26
2017-08-20 16:50:00 Runasimi River T Scudamore 25 133 18.8
2017-08-20 17:25:00 Full N Fehily 37 140 26.43

Tramore

DATE / TIME HORSE TRAINER TRAINER WINS TRAINER RUNS TRAINER SR
2017-08-20 13:50:00 Fort Montagu J Nicholson 6 32 18.75
2017-08-20 13:50:00 Herminio W Mullins 55 176 31.25
2017-08-20 14:25:00 Kalanisi King J Barry 9 51 17.65
2017-08-20 14:55:00 Hey Little Boy W Mullins 55 176 31.25
2017-08-20 14:55:00 Become Legend W Mullins 55 176 31.25
2017-08-20 14:55:00 Geni Johnson J Barry 9 51 17.65
2017-08-20 15:30:00 Line View J Dullea 12 53 22.64
2017-08-20 15:30:00 Patsio J Barry 9 51 17.65
2017-08-20 16:05:00 Conduct Yourself J Kiely 11 55 20
2017-08-20 16:05:00 Let Her Cry J Barry 9 51 17.65
2017-08-20 16:05:00 Swift J Nicholson 6 32 18.75
2017-08-20 16:40:00 Thats Mypresenting J Barry 9 51 17.65
2017-08-20 17:15:00 Irish Lass W Mullins 55 176 31.25
DATE / TIME HORSE JOCKEY JOCKEY WINS JOCKEY RUNS JOCKEY SR
2017-08-20 13:50:00 Herminio R Walsh 38 129 29.46
2017-08-20 13:50:00 The Brassmoulder D N Russell 37 186 19.89
2017-08-20 14:25:00 Boytonrath D N Russell 37 186 19.89
2017-08-20 14:55:00 Creadan Grae D N Russell 37 186 19.89
2017-08-20 14:55:00 Hey Little Boy R Walsh 38 129 29.46
2017-08-20 14:55:00 Become Legend P Townend 23 131 17.56
2017-08-20 15:30:00 Line View P Townend 23 131 17.56
2017-08-20 15:30:00 Bellgrove D N Russell 37 186 19.89
2017-08-20 16:05:00 Arbor Des Champs Mr D Mullins 9 41 21.95
2017-08-20 16:05:00 Lilywhite Gesture D N Russell 37 186 19.89
2017-08-20 16:40:00 Sir Jack Yeats D N Russell 37 186 19.89
2017-08-20 17:15:00 Lucca Lady Mr J J Codd 5 22 22.73
2017-08-20 17:15:00 Mysloegin Mr D O’Connor 2 11 18.18
2017-08-20 17:15:00 Irish Lass Mr P W Mullins 15 42 35.71

To find the strongest runners we are looking for those horses that have both a jockey and trainer with over a 17% strike rate in todays race cards. We then check out their stats to find the horses that you should be looking at closely in todays racing based on this information.

We recommend that when considering the following runners in your analysis you remove any at 16/1 or higher.

To get profitable tips each day based on this data please visit the UKRN Early Bird service here.

Today’s strongest runners are:
  • 14:45 Deauville
  • 14:00 Southwell
  • 14:35 Southwell

HORSE: So Mi Dar

TRAINER: J Gosden

TRAINER STRIKE RATE: 36.36%

JOCKEY: L Dettori

JOCKEY STRIKE RATE: 42.86%

S/R FOR THIS GOING: 0%

S/R FOR THIS DISTANCE: 75%

S/R FOR THIS COURSE: 0%

HORSE: Azzuri

TRAINER: D Skelton

TRAINER STRIKE RATE: 21%

JOCKEY: H Skelton

JOCKEY STRIKE RATE: 19.26%

S/R FOR THIS GOING: 0%

S/R FOR THIS DISTANCE: 33%

S/R FOR THIS COURSE: 100%

HORSE: Stormbay Bomber

TRAINER: P Holmes

TRAINER STRIKE RATE: 26.67%

JOCKEY: A Nicol

JOCKEY STRIKE RATE: 17.57%

S/R FOR THIS GOING: 0%

S/R FOR THIS DISTANCE: 0%

S/R FOR THIS COURSE: 22.22%

  • 15:10 Southwell
  • 16:15 Southwell
  • 15:30 Tramore

HORSE: Art Of Payroll

TRAINER: H Fry

TRAINER STRIKE RATE: 27.27%

JOCKEY: N Fehily

JOCKEY STRIKE RATE: 26.43%

S/R FOR THIS GOING: 0%

S/R FOR THIS DISTANCE: 25%

S/R FOR THIS COURSE: 0%

HORSE: Tidestream

TRAINER: T Vaughan

TRAINER STRIKE RATE: 21.15%

JOCKEY: Mr A Johns

JOCKEY STRIKE RATE: 20%

S/R FOR THIS GOING: 0%

S/R FOR THIS DISTANCE: 0%

S/R FOR THIS COURSE: 50%

HORSE: Line View

TRAINER: J Dullea

TRAINER STRIKE RATE: 22.64%

JOCKEY: P Townend

JOCKEY STRIKE RATE: 17.56%

S/R FOR THIS GOING: 0%

S/R FOR THIS DISTANCE: 17%

S/R FOR THIS COURSE: 27.27%

* The Daily Stat Pack is a free tool based on statistics from todays racecards that is designed to be combined with your other race analysis.

Tags

Related Articles

Leave a Reply

Your email address will not be published. Required fields are marked *

This site uses Akismet to reduce spam. Learn how your comment data is processed.

Close
Close